Time;durP1;ratioP1;P1;durP2;ratioP2;P2;SDS_P1;SDS_P2;PMS_P1;PMS_P2;Temp;Humidity;BMP_temperature;BMP_pressure;BME280_temperature;BME280_humidity;BME280_pressure;Samples;Min_cycle;Max_cycle;Signal;HPM_P1;HPM_P2
2021/05/06 00:07:27;;;;;;;1.33;1.23;;;8.40;99.90;;;;;;5032762;28;20204;-73
2021/05/06 00:31:57;;;;;;;2.38;1.55;;;8.40;99.90;;;;;;5032278;28;20278;-74
2021/05/06 00:34:23;;;;;;;1.88;1.33;;;8.40;99.90;;;;;;5032465;28;20717;-75
2021/05/06 00:36:51;;;;;;;1.55;1.35;;;8.40;99.90;;;;;;5032526;28;20200;-73
2021/05/06 00:39:20;;;;;;;1.55;1.45;;;8.40;99.90;;;;;;5032518;28;20299;-73
2021/05/06 00:41:59;;;;;;;1.95;1.75;;;8.50;99.90;;;;;;5032380;28;20200;-76
2021/05/06 00:55:48;;;;;;;1.83;1.70;;;8.50;99.90;;;;;;5020954;28;20299;-77
2021/05/06 01:01:10;;;;;;;2.25;1.40;;;8.50;99.90;;;;;;5030231;28;20658;-77
2021/05/06 01:03:46;;;;;;;2.60;1.80;;;8.50;99.90;;;;;;5033603;28;20218;-77
2021/05/06 01:06:17;;;;;;;2.60;2.00;;;8.50;99.90;;;;;;5033684;28;20209;-77
2021/05/06 01:08:48;;;;;;;3.00;1.70;;;8.40;99.90;;;;;;5033990;28;20192;-77
2021/05/06 01:11:21;;;;;;;2.65;1.70;;;8.40;99.90;;;;;;5033485;28;20648;-77
2021/05/06 01:13:49;;;;;;;2.25;1.60;;;8.40;99.90;;;;;;5033850;28;20216;-77
2021/05/06 01:16:15;;;;;;;2.00;1.90;;;8.40;99.90;;;;;;5033336;28;20647;-77
2021/05/06 01:18:42;;;;;;;2.22;1.70;;;8.40;99.90;;;;;;5033703;28;20204;-77
2021/05/06 01:21:09;;;;;;;4.25;1.90;;;8.40;99.90;;;;;;5034014;28;20236;-78
2021/05/06 01:23:39;;;;;;;3.10;1.73;;;8.40;99.90;;;;;;5033625;28;20231;-78
2021/05/06 01:26:13;;;;;;;2.17;1.88;;;8.40;99.90;;;;;;5033985;28;20243;-77
2021/05/06 01:28:42;;;;;;;3.70;1.63;;;8.30;99.90;;;;;;5033976;28;20244;-78
2021/05/06 01:31:11;;;;;;;1.85;1.70;;;8.40;99.90;;;;;;5033644;28;20238;-77
2021/05/06 01:33:41;;;;;;;2.17;1.67;;;8.40;99.90;;;;;;5034021;28;20295;-77
2021/05/06 01:36:10;;;;;;;1.95;1.70;;;8.40;99.90;;;;;;5033451;28;20212;-78
2021/05/06 01:38:59;;;;;;;2.25;1.75;;;8.40;99.90;;;;;;5033661;28;20705;-78
2021/05/06 01:44:12;;;;;;;2.55;1.90;;;8.40;99.90;;;;;;5033957;28;20231;-78
2021/05/06 01:47:02;;;;;;;2.67;1.85;;;8.40;99.90;;;;;;5037174;28;20208;-78
2021/05/06 01:49:43;;;;;;;2.00;1.80;;;8.40;99.90;;;;;;5036893;28;20255;-77
2021/05/06 02:00:25;;;;;;;1.73;1.42;;;8.40;99.90;;;;;;5036106;28;20286;-77
2021/05/06 02:02:51;;;;;;;2.15;1.65;;;8.50;99.90;;;;;;5036822;28;20230;-77
2021/05/06 02:05:18;;;;;;;2.40;2.20;;;8.50;99.90;;;;;;5036446;28;20243;-76
2021/05/06 02:07:46;;;;;;;3.25;1.73;;;8.50;99.90;;;;;;5037616;28;20218;-78
2021/05/06 02:10:15;;;;;;;3.38;1.80;;;8.60;99.90;;;;;;5037981;28;20204;-78
2021/05/06 02:12:42;;;;;;;2.20;1.58;;;8.60;99.90;;;;;;5038051;28;20682;-78
2021/05/06 02:15:12;;;;;;;1.95;1.42;;;8.60;99.90;;;;;;5037792;28;20303;-77
2021/05/06 02:17:39;;;;;;;1.50;1.40;;;8.70;99.90;;;;;;5037266;28;20211;-77
2021/05/06 02:20:07;;;;;;;4.63;1.80;;;8.70;99.90;;;;;;5036445;28;20211;-77
2021/05/06 02:22:33;;;;;;;1.80;1.55;;;8.70;99.90;;;;;;5037027;28;20236;-77
2021/05/06 02:25:00;;;;;;;2.80;1.70;;;8.70;99.90;;;;;;5036182;28;20331;-77
2021/05/06 02:27:27;;;;;;;3.33;1.92;;;8.80;99.90;;;;;;5036496;28;20279;-77
2021/05/06 02:29:55;;;;;;;2.78;1.73;;;8.80;99.90;;;;;;5036512;28;20204;-78
2021/05/06 02:32:21;;;;;;;1.77;1.67;;;8.80;99.90;;;;;;5035953;28;20219;-77
2021/05/06 02:34:47;;;;;;;3.13;2.05;;;8.90;99.90;;;;;;5036723;28;20242;-78
2021/05/06 02:37:14;;;;;;;2.50;2.20;;;8.80;99.90;;;;;;5036771;28;20246;-77
2021/05/06 02:39:41;;;;;;;2.30;2.10;;;8.80;99.90;;;;;;5037900;28;20204;-78
2021/05/06 02:42:07;;;;;;;5.28;2.30;;;8.80;99.90;;;;;;5037671;28;20607;-77
2021/05/06 02:44:36;;;;;;;3.50;2.45;;;8.70;99.90;;;;;;5036893;28;20314;-78
2021/05/06 02:47:02;;;;;;;3.00;2.22;;;8.70;99.90;;;;;;5036450;28;20204;-77
2021/05/06 02:49:29;;;;;;;4.00;1.80;;;8.70;99.90;;;;;;5036041;28;20200;-77
2021/05/06 02:52:00;;;;;;;3.85;2.10;;;8.70;99.90;;;;;;5036171;28;20295;-77
2021/05/06 02:54:30;;;;;;;3.85;2.00;;;8.70;99.90;;;;;;5037105;28;20566;-77
2021/05/06 02:57:01;;;;;;;2.90;2.20;;;8.70;99.90;;;;;;5035228;28;20208;-78
2021/05/06 03:04:56;;;;;;;2.72;1.85;;;8.60;99.90;;;;;;5035664;28;20282;-77
2021/05/06 03:07:26;;;;;;;2.95;2.00;;;8.50;99.90;;;;;;5035486;28;20259;-77
2021/05/06 03:10:00;;;;;;;2.35;1.80;;;8.50;99.90;;;;;;5035809;28;20227;-77
2021/05/06 03:12:39;;;;;;;5.45;2.08;;;8.50;99.90;;;;;;5036836;28;20185;-78
2021/05/06 03:23:18;;;;;;;2.47;1.50;;;8.40;99.90;;;;;;5035178;28;20322;-78
2021/05/06 03:25:44;;;;;;;4.00;2.08;;;8.40;99.90;;;;;;5035425;28;20626;-77
2021/05/06 03:28:13;;;;;;;2.10;1.90;;;8.40;99.90;;;;;;5035372;28;20204;-77
2021/05/06 03:31:00;;;;;;;3.20;2.67;;;8.30;99.90;;;;;;5035092;28;20200;-77
2021/05/06 03:42:03;;;;;;;4.32;2.17;;;8.10;99.90;;;;;;5034929;28;20215;-77
2021/05/06 04:11:55;;;;;;;2.85;2.15;;;7.80;99.90;;;;;;5034860;28;20681;-77
2021/05/06 04:17:46;;;;;;;2.65;2.15;;;7.80;99.90;;;;;;5009476;28;20188;-78
2021/05/06 04:25:51;;;;;;;1.63;1.30;;;7.80;99.90;;;;;;5033962;28;20223;-77
2021/05/06 04:31:22;;;;;;;4.85;2.30;;;7.50;99.90;;;;;;5024693;28;20191;-77
2021/05/06 04:36:42;;;;;;;3.22;2.00;;;7.40;99.90;;;;;;5033601;28;20203;-77
2021/05/06 04:39:13;;;;;;;2.75;2.30;;;7.40;99.90;;;;;;5033780;28;20537;-77
2021/05/06 04:41:43;;;;;;;3.88;1.92;;;7.30;99.90;;;;;;5034274;28;20208;-78
2021/05/06 04:55:13;;;;;;;3.67;2.40;;;7.30;99.90;;;;;;5034268;28;20219;-74
2021/05/06 05:05:54;;;;;;;3.38;2.30;;;7.50;99.90;;;;;;5031715;28;20200;-74
2021/05/06 05:08:21;;;;;;;3.22;2.92;;;7.40;99.90;;;;;;5034182;28;20235;-74
2021/05/06 05:11:03;;;;;;;2.65;2.28;;;7.40;99.90;;;;;;5034211;28;20207;-74
2021/05/06 05:13:43;;;;;;;2.20;2.00;;;7.50;99.90;;;;;;5034142;28;20349;-74
2021/05/06 05:18:55;;;;;;;2.83;2.17;;;7.70;99.90;;;;;;5034888;28;20220;-74
2021/05/06 05:23:25;;;;;;;3.67;2.40;;;7.90;99.90;;;;;;5038407;28;20658;-74
2021/05/06 05:24:15;;;;;;;3.15;1.98;;;8.10;99.90;;;;;;5037465;28;20269;-74
2021/05/06 05:26:44;;;;;;;2.63;1.95;;;8.10;99.90;;;;;;5037815;28;20211;-74
2021/05/06 05:29:10;;;;;;;3.95;2.13;;;8.10;99.90;;;;;;5038070;28;20232;-74
2021/05/06 05:31:36;;;;;;;2.90;2.00;;;8.30;99.90;;;;;;5037007;28;20291;-74
2021/05/06 05:34:14;;;;;;;2.65;2.20;;;8.40;99.90;;;;;;5035429;28;20215;-74
2021/05/06 05:36:41;;;;;;;1.80;1.70;;;8.40;99.90;;;;;;5033850;28;20211;-75
2021/05/06 05:39:11;;;;;;;3.47;1.70;;;8.50;99.90;;;;;;5037224;28;20204;-72
2021/05/06 05:41:58;;;;;;;5.30;1.75;;;8.40;99.90;;;;;;5037217;28;20208;-72
2021/05/06 05:44:53;;;;;;;2.83;2.08;;;8.40;99.90;;;;;;5037349;28;20258;-72
2021/05/06 05:55:41;;;;;;;2.67;1.65;;;8.60;99.90;;;;;;5036674;28;20266;-72
2021/05/06 05:58:07;;;;;;;4.18;1.90;;;8.60;99.90;;;;;;5037526;28;20200;-72
2021/05/06 06:00:34;;;;;;;3.78;2.13;;;8.60;99.90;;;;;;5037407;28;20215;-72
2021/05/06 06:03:01;;;;;;;4.38;2.10;;;8.70;99.90;;;;;;5037233;28;20324;-72
2021/05/06 06:05:27;;;;;;;3.17;2.45;;;8.70;99.90;;;;;;5036067;28;20264;-72
2021/05/06 06:07:54;;;;;;;2.65;2.33;;;8.70;99.90;;;;;;5036910;28;20309;-72
2021/05/06 06:10:20;;;;;;;4.78;2.20;;;8.70;99.90;;;;;;5036801;28;20550;-72
2021/05/06 06:12:46;;;;;;;3.03;2.10;;;8.70;99.90;;;;;;5036773;28;20200;-72
2021/05/06 06:15:18;;;;;;;3.63;2.30;;;8.80;99.90;;;;;;5037193;28;20270;-72
2021/05/06 06:17:47;;;;;;;4.10;2.38;;;8.90;99.90;;;;;;5037093;28;20207;-72
2021/05/06 06:20:14;;;;;;;6.05;2.15;;;8.90;99.90;;;;;;5036927;28;20208;-72
2021/05/06 06:22:40;;;;;;;3.55;2.13;;;8.90;99.90;;;;;;5036630;28;20546;-72
2021/05/06 06:25:08;;;;;;;7.55;2.58;;;9.00;99.90;;;;;;5036390;28;20761;-72
2021/05/06 06:27:34;;;;;;;4.15;2.10;;;9.00;99.90;;;;;;5036331;28;20208;-72
2021/05/06 06:30:01;;;;;;;2.40;2.20;;;9.00;99.90;;;;;;5036136;28;20265;-72
2021/05/06 06:32:28;;;;;;;3.97;2.10;;;9.00;99.90;;;;;;5035799;28;20357;-72
2021/05/06 06:34:55;;;;;;;3.15;1.88;;;9.00;99.90;;;;;;5035899;28;20268;-72
2021/05/06 06:37:21;;;;;;;3.13;2.13;;;9.10;99.90;;;;;;5035587;28;20208;-72
2021/05/06 06:39:48;;;;;;;2.75;2.25;;;9.10;99.90;;;;;;5036301;28;20208;-72
2021/05/06 06:42:14;;;;;;;4.63;2.28;;;9.00;99.90;;;;;;5036029;28;20761;-72
2021/05/06 06:44:41;;;;;;;3.97;2.90;;;9.10;99.90;;;;;;5035481;28;20228;-72
2021/05/06 06:47:08;;;;;;;7.43;4.20;;;9.10;99.90;;;;;;5035934;28;20663;-72
2021/05/06 06:49:36;;;;;;;5.00;2.40;;;9.20;99.90;;;;;;5035548;28;20212;-72
2021/05/06 06:52:05;;;;;;;2.65;2.45;;;9.20;99.90;;;;;;5035558;28;20258;-72
2021/05/06 06:54:31;;;;;;;4.47;2.70;;;9.20;99.90;;;;;;5035851;28;20220;-72
2021/05/06 06:56:58;;;;;;;3.03;2.20;;;9.20;99.90;;;;;;5035839;28;20287;-72
2021/05/06 06:59:24;;;;;;;2.72;2.05;;;9.10;99.90;;;;;;5035970;28;20309;-72
2021/05/06 07:01:50;;;;;;;3.10;2.30;;;9.10;99.90;;;;;;5035556;28;20762;-72
2021/05/06 07:04:17;;;;;;;4.85;2.55;;;9.10;99.90;;;;;;5035537;28;20315;-72
2021/05/06 07:06:43;;;;;;;2.30;2.00;;;9.10;99.90;;;;;;5035189;28;20239;-72
2021/05/06 07:09:10;;;;;;;3.33;2.10;;;9.20;99.90;;;;;;5035531;28;20593;-72
2021/05/06 07:11:38;;;;;;;6.30;2.05;;;9.20;99.90;;;;;;5035608;28;20596;-72
2021/05/06 07:14:04;;;;;;;3.53;2.90;;;9.30;99.90;;;;;;5035298;28;20713;-72
2021/05/06 07:16:31;;;;;;;4.90;2.10;;;9.40;99.90;;;;;;5035478;28;20253;-72
2021/05/06 07:18:57;;;;;;;3.15;2.40;;;9.40;99.90;;;;;;5035214;28;20290;-73
2021/05/06 07:21:24;;;;;;;4.97;2.38;;;9.50;99.90;;;;;;5035074;28;20212;-72
2021/05/06 07:23:53;;;;;;;3.72;2.40;;;9.50;99.90;;;;;;5034886;28;20301;-72
2021/05/06 07:26:20;;;;;;;3.30;2.15;;;9.60;99.90;;;;;;5035119;28;20251;-72
2021/05/06 07:28:49;;;;;;;5.80;2.50;;;9.60;99.90;;;;;;5035420;28;20208;-72
2021/05/06 07:31:15;;;;;;;2.65;2.28;;;9.70;99.90;;;;;;5034707;28;20212;-73
2021/05/06 07:33:43;;;;;;;2.78;2.00;;;9.70;99.90;;;;;;5034829;28;20290;-72
2021/05/06 07:36:11;;;;;;;2.40;2.20;;;9.80;99.90;;;;;;5034331;28;20225;-72
2021/05/06 07:38:37;;;;;;;2.90;2.03;;;9.80;99.90;;;;;;5034648;28;20247;-72
2021/05/06 07:41:04;;;;;;;3.38;2.50;;;9.90;99.90;;;;;;5034937;28;20720;-72
2021/05/06 07:43:33;;;;;;;2.03;1.83;;;9.90;99.90;;;;;;5034329;28;20204;-72
2021/05/06 07:45:59;;;;;;;4.28;2.20;;;10.00;99.90;;;;;;5034279;28;20204;-72
2021/05/06 07:48:26;;;;;;;2.97;2.30;;;10.10;99.90;;;;;;5034788;28;20297;-72
2021/05/06 07:50:53;;;;;;;2.72;2.17;;;10.10;99.90;;;;;;5034593;28;20235;-72
2021/05/06 07:53:24;;;;;;;5.57;3.40;;;10.20;99.90;;;;;;5034346;28;20254;-72
2021/05/06 07:55:51;;;;;;;6.10;2.63;;;10.30;99.90;;;;;;5034134;28;20220;-72
2021/05/06 07:58:18;;;;;;;5.85;2.67;;;10.30;99.90;;;;;;5034347;28;20240;-72
2021/05/06 08:00:45;;;;;;;2.72;2.20;;;10.40;99.90;;;;;;5034435;28;20295;-72
2021/05/06 08:03:12;;;;;;;2.80;2.00;;;10.50;99.90;;;;;;5034281;28;20203;-72
2021/05/06 08:05:39;;;;;;;3.08;2.40;;;10.50;99.90;;;;;;5034469;28;20266;-72
2021/05/06 08:08:06;;;;;;;2.95;2.10;;;10.50;99.90;;;;;;5034696;28;20299;-72
2021/05/06 08:10:33;;;;;;;3.58;2.15;;;10.50;99.90;;;;;;5034199;28;20287;-72
2021/05/06 08:13:02;;;;;;;4.75;2.20;;;10.60;99.90;;;;;;5033943;28;20291;-72
2021/05/06 08:15:29;;;;;;;2.38;2.15;;;10.60;99.90;;;;;;5034104;28;20220;-72
2021/05/06 08:17:57;;;;;;;3.53;2.72;;;10.70;99.90;;;;;;5034374;28;20619;-72
2021/05/06 08:20:23;;;;;;;5.18;2.17;;;10.70;99.90;;;;;;5034314;28;20208;-72
2021/05/06 08:22:50;;;;;;;4.35;2.30;;;10.70;99.90;;;;;;5033890;28;20295;-72
2021/05/06 08:25:18;;;;;;;2.97;2.00;;;10.80;99.90;;;;;;5033686;28;20315;-72
2021/05/06 08:27:45;;;;;;;4.32;2.55;;;10.80;99.90;;;;;;5033949;28;20255;-73
2021/05/06 08:30:14;;;;;;;3.78;2.03;;;10.90;99.90;;;;;;5033840;28;20298;-72
2021/05/06 08:32:41;;;;;;;3.53;1.90;;;10.90;99.90;;;;;;5033980;28;20609;-73
2021/05/06 08:35:10;;;;;;;2.17;1.90;;;10.90;99.90;;;;;;5034172;28;20713;-72
2021/05/06 08:37:37;;;;;;;2.20;2.00;;;11.00;99.90;;;;;;5033551;28;20291;-72
2021/05/06 08:40:05;;;;;;;3.65;1.70;;;11.00;99.90;;;;;;5033683;28;20298;-73
2021/05/06 08:42:33;;;;;;;2.92;1.58;;;11.00;99.90;;;;;;5033917;28;20554;-72
2021/05/06 08:45:01;;;;;;;3.05;2.13;;;11.10;99.90;;;;;;5034123;28;20290;-73
2021/05/06 08:47:28;;;;;;;4.90;3.60;;;11.20;99.90;;;;;;5033807;28;20547;-72
2021/05/06 08:49:55;;;;;;;7.68;3.65;;;11.10;99.90;;;;;;5034049;28;20298;-73
2021/05/06 08:52:22;;;;;;;3.92;2.00;;;11.20;99.90;;;;;;5033994;28;20291;-73
2021/05/06 08:54:50;;;;;;;5.53;2.17;;;11.20;99.90;;;;;;5035263;28;20780;-73
2021/05/06 08:57:18;;;;;;;2.30;2.00;;;11.30;99.90;;;;;;5037716;28;20210;-73
2021/05/06 08:59:45;;;;;;;4.45;2.60;;;11.30;99.90;;;;;;5037765;28;20251;-73
2021/05/06 09:02:11;;;;;;;3.10;2.10;;;11.30;99.90;;;;;;5037963;28;20302;-73
2021/05/06 09:04:38;;;;;;;5.25;2.45;;;11.30;99.90;;;;;;5037883;28;20334;-73
2021/05/06 09:07:05;;;;;;;4.03;2.42;;;11.30;99.90;;;;;;5037387;28;20246;-72
2021/05/06 09:09:33;;;;;;;3.88;1.80;;;11.30;99.90;;;;;;5037623;28;20204;-73
2021/05/06 09:12:01;;;;;;;3.40;2.30;;;11.30;99.90;;;;;;5037645;28;20215;-73
2021/05/06 09:14:36;;;;;;;5.50;2.20;;;11.20;99.90;;;;;;5037266;28;20227;-73
2021/05/06 09:17:02;;;;;;;5.18;2.45;;;11.30;99.90;;;;;;5037246;28;20267;-72
2021/05/06 09:19:29;;;;;;;4.43;2.45;;;11.30;99.90;;;;;;5037265;28;20295;-73
2021/05/06 09:21:56;;;;;;;2.78;2.25;;;11.40;99.90;;;;;;5037154;28;20204;-73
2021/05/06 09:24:25;;;;;;;3.17;2.47;;;11.30;99.90;;;;;;5036761;28;20224;-73
2021/05/06 09:26:54;;;;;;;5.20;2.70;;;11.30;99.90;;;;;;5037245;28;20261;-72
2021/05/06 09:29:33;;;;;;;3.42;2.50;;;11.20;99.90;;;;;;5037364;28;20670;-73
2021/05/06 09:32:13;;;;;;;2.85;2.65;;;11.20;99.90;;;;;;5036866;28;20219;-73
2021/05/06 09:34:41;;;;;;;3.75;2.15;;;11.30;99.90;;;;;;5037407;28;20231;-73
2021/05/06 09:37:08;;;;;;;10.15;2.25;;;11.40;99.90;;;;;;5037054;28;20204;-72
2021/05/06 09:39:36;;;;;;;4.20;2.33;;;11.40;99.90;;;;;;5037264;28;20200;-72
2021/05/06 09:42:07;;;;;;;2.40;2.10;;;11.40;99.90;;;;;;5037337;28;20291;-73
2021/05/06 09:44:52;;;;;;;3.70;2.40;;;11.40;99.90;;;;;;5036736;28;20315;-73
2021/05/06 09:47:19;;;;;;;2.85;2.38;;;11.50;99.90;;;;;;5036829;28;20208;-72
2021/05/06 09:49:45;;;;;;;2.58;2.33;;;11.40;99.90;;;;;;5036984;28;20204;-73
2021/05/06 09:52:12;;;;;;;4.82;2.30;;;11.50;99.90;;;;;;5037003;28;20676;-73
2021/05/06 09:54:47;;;;;;;4.80;2.78;;;11.60;99.90;;;;;;5037003;28;20331;-73
2021/05/06 09:57:25;;;;;;;4.22;2.40;;;11.60;99.90;;;;;;5036556;28;20298;-72
2021/05/06 10:00:10;;;;;;;2.72;1.98;;;11.60;99.90;;;;;;5036847;28;20203;-73
2021/05/06 10:02:37;;;;;;;3.30;2.70;;;11.50;99.90;;;;;;5036911;28;20295;-73
2021/05/06 10:05:07;;;;;;;4.90;2.35;;;11.50;99.90;;;;;;5035785;28;20224;-73
2021/05/06 10:07:33;;;;;;;3.75;2.53;;;11.60;99.90;;;;;;5036346;28;20558;-72
2021/05/06 10:10:02;;;;;;;2.53;1.98;;;11.60;99.90;;;;;;5036352;28;20200;-73
2021/05/06 10:12:31;;;;;;;2.90;2.20;;;11.60;99.90;;;;;;5036265;28;20231;-72
2021/05/06 10:14:58;;;;;;;2.88;2.22;;;11.50;99.90;;;;;;5036519;28;20223;-73
2021/05/06 10:17:27;;;;;;;6.65;2.40;;;11.60;99.90;;;;;;5036472;28;20653;-72
2021/05/06 10:19:54;;;;;;;3.45;2.20;;;11.60;99.90;;;;;;5036159;28;20571;-73
2021/05/06 10:22:22;;;;;;;2.80;1.90;;;11.60;99.90;;;;;;5036198;28;20210;-73
2021/05/06 10:24:49;;;;;;;3.45;2.80;;;11.60;99.90;;;;;;5036547;28;20319;-72
2021/05/06 10:27:16;;;;;;;3.90;2.30;;;11.50;99.90;;;;;;5036189;28;20208;-72
2021/05/06 10:29:44;;;;;;;2.33;2.13;;;11.50;99.90;;;;;;5036452;28;20547;-72
2021/05/06 10:32:12;;;;;;;3.42;2.25;;;11.40;99.90;;;;;;5035845;28;20222;-73
2021/05/06 10:34:39;;;;;;;3.63;1.90;;;11.50;99.90;;;;;;5035664;28;20224;-73
2021/05/06 10:37:06;;;;;;;3.63;2.10;;;11.50;99.90;;;;;;5035625;28;20210;-72
2021/05/06 10:39:40;;;;;;;2.63;1.95;;;11.50;99.90;;;;;;5036204;28;20641;-73
2021/05/06 10:42:35;;;;;;;2.40;2.20;;;11.50;99.90;;;;;;5035641;28;20243;-72
2021/05/06 10:45:18;;;;;;;4.10;2.10;;;11.40;99.90;;;;;;5035812;28;20228;-72
2021/05/06 10:47:55;;;;;;;2.80;1.90;;;11.40;99.90;;;;;;5035635;28;20216;-72
2021/05/06 10:50:24;;;;;;;2.20;1.58;;;11.30;99.90;;;;;;5035973;28;20206;-72
2021/05/06 10:52:51;;;;;;;2.85;1.90;;;11.20;99.90;;;;;;5036016;28;20279;-72
2021/05/06 10:55:42;;;;;;;2.13;1.90;;;11.10;99.90;;;;;;5035303;28;20251;-72
2021/05/06 10:58:39;;;;;;;2.28;1.92;;;11.10;99.90;;;;;;5035529;28;20551;-72
2021/05/06 11:01:39;;;;;;;3.15;1.95;;;11.20;99.90;;;;;;4955724;29;20293;-72
2021/05/06 11:04:10;;;;;;;2.40;1.90;;;11.30;99.90;;;;;;5035211;28;20232;-72
2021/05/06 11:06:42;;;;;;;2.45;1.65;;;11.20;99.90;;;;;;5035055;28;20734;-72
2021/05/06 11:10:01;;;;;;;1.80;1.65;;;11.20;99.90;;;;;;5035747;28;20204;-72
2021/05/06 11:12:32;;;;;;;2.45;1.77;;;11.30;99.90;;;;;;5035447;28;20208;-72
2021/05/06 11:15:23;;;;;;;4.03;1.70;;;11.30;99.90;;;;;;5035581;28;20308;-72
2021/05/06 11:17:51;;;;;;;2.00;1.80;;;11.40;99.90;;;;;;5023792;28;20295;-72
2021/05/06 11:20:53;;;;;;;2.17;1.98;;;11.40;99.90;;;;;;5035418;28;20636;-72
2021/05/06 11:23:36;;;;;;;2.47;1.63;;;11.40;99.90;;;;;;5035240;28;20215;-72
2021/05/06 11:26:09;;;;;;;2.40;2.03;;;11.40;99.90;;;;;;5035394;28;20270;-72
2021/05/06 11:28:43;;;;;;;4.57;2.10;;;11.40;99.90;;;;;;5035390;28;20295;-72
2021/05/06 11:31:10;;;;;;;1.70;1.60;;;11.50;99.90;;;;;;5034742;28;20252;-73
2021/05/06 11:33:37;;;;;;;2.00;1.80;;;11.60;99.90;;;;;;5034852;28;20624;-73
2021/05/06 11:36:12;;;;;;;2.88;1.88;;;11.70;99.90;;;;;;5034822;28;20204;-72
2021/05/06 11:38:46;;;;;;;1.92;1.55;;;11.80;99.90;;;;;;5035152;28;20204;-73
2021/05/06 11:41:15;;;;;;;5.32;3.90;;;11.80;99.90;;;;;;5034697;28;20299;-73
2021/05/06 11:43:47;;;;;;;1.80;1.40;;;11.80;99.90;;;;;;5034697;28;20297;-73
2021/05/06 11:46:15;;;;;;;4.70;1.20;;;11.80;99.90;;;;;;5034516;28;20350;-73
2021/05/06 11:48:44;;;;;;;3.03;1.40;;;11.70;99.90;;;;;;5034873;28;20554;-73
2021/05/06 11:51:23;;;;;;;1.55;1.45;;;11.70;99.90;;;;;;5034895;28;20200;-73
2021/05/06 11:54:03;;;;;;;1.70;1.60;;;11.70;99.90;;;;;;5034494;28;20318;-73
2021/05/06 11:56:29;;;;;;;1.63;1.50;;;11.70;99.90;;;;;;5034609;28;20295;-72
2021/05/06 11:58:56;;;;;;;1.92;1.23;;;11.50;99.90;;;;;;5034234;28;20300;-73
2021/05/06 12:01:24;;;;;;;1.65;1.55;;;11.60;99.90;;;;;;5034297;28;20311;-73
2021/05/06 12:03:51;;;;;;;1.00;0.90;;;11.60;99.90;;;;;;5034454;28;20781;-73
2021/05/06 12:06:27;;;;;;;1.52;1.40;;;11.60;99.90;;;;;;5034025;28;20232;-72
2021/05/06 12:08:54;;;;;;;1.50;1.40;;;11.60;99.90;;;;;;5034132;28;20647;-73
2021/05/06 12:11:20;;;;;;;1.50;1.13;;;11.60;99.90;;;;;;5033969;28;20211;-73
2021/05/06 12:13:47;;;;;;;1.35;1.00;;;11.60;99.90;;;;;;5034431;28;20204;-72
2021/05/06 12:16:19;;;;;;;1.98;1.33;;;11.60;99.90;;;;;;5034245;28;20200;-72
2021/05/06 12:18:56;;;;;;;1.42;0.95;;;11.60;99.90;;;;;;5033864;28;20330;-73
2021/05/06 12:21:28;;;;;;;0.90;0.90;;;11.60;99.90;;;;;;5034190;28;20250;-73
2021/05/06 12:23:54;;;;;;;1.10;1.00;;;11.60;99.90;;;;;;5034307;28;20315;-73
2021/05/06 12:26:21;;;;;;;0.93;0.93;;;11.60;99.90;;;;;;5033973;28;20204;-72
2021/05/06 12:28:48;;;;;;;1.10;1.10;;;11.70;99.90;;;;;;5033968;28;20737;-72
2021/05/06 12:31:14;;;;;;;1.42;0.90;;;11.70;99.90;;;;;;5033622;28;20247;-72
2021/05/06 12:33:40;;;;;;;1.27;1.17;;;11.80;99.90;;;;;;5033686;28;20203;-72
2021/05/06 12:36:12;;;;;;;1.13;1.13;;;11.90;99.90;;;;;;5034027;28;20235;-72
2021/05/06 12:38:39;;;;;;;2.03;1.27;;;11.90;99.90;;;;;;5034068;28;20208;-72
2021/05/06 12:41:06;;;;;;;2.28;1.20;;;11.90;99.90;;;;;;5034105;28;20204;-73
2021/05/06 12:43:34;;;;;;;1.45;1.35;;;11.90;99.90;;;;;;5033540;28;20214;-72
2021/05/06 12:46:03;;;;;;;1.30;1.20;;;12.00;99.90;;;;;;5033579;28;20232;-73
2021/05/06 12:48:37;;;;;;;1.60;1.33;;;11.90;99.90;;;;;;5033842;28;20294;-73
2021/05/06 12:51:04;;;;;;;1.45;1.35;;;11.90;99.90;;;;;;5034095;28;20212;-73
2021/05/06 12:53:33;;;;;;;2.28;1.50;;;11.80;99.90;;;;;;5033959;28;20200;-73
2021/05/06 12:55:59;;;;;;;1.70;1.60;;;11.80;99.90;;;;;;5033619;28;20750;-72
2021/05/06 12:58:28;;;;;;;1.70;1.60;;;11.70;99.90;;;;;;5033354;28;20295;-73
2021/05/06 13:01:11;;;;;;;1.60;1.50;;;11.60;99.90;;;;;;5033468;28;20210;-73
2021/05/06 13:03:42;;;;;;;1.58;1.38;;;11.70;99.90;;;;;;5033756;28;20204;-72
2021/05/06 13:06:10;;;;;;;1.88;1.58;;;11.60;99.90;;;;;;5033760;28;20204;-72
2021/05/06 13:08:38;;;;;;;1.63;1.52;;;11.60;99.90;;;;;;5033878;28;20212;-72
2021/05/06 13:11:05;;;;;;;1.30;1.20;;;11.60;99.90;;;;;;5033407;28;20212;-72
2021/05/06 13:13:38;;;;;;;1.33;1.20;;;11.40;99.90;;;;;;5033535;28;20361;-73
2021/05/06 13:16:05;;;;;;;1.98;1.85;;;11.50;99.90;;;;;;5033111;28;20693;-72
2021/05/06 13:18:32;;;;;;;2.10;1.90;;;11.40;99.90;;;;;;5033633;28;20646;-73
2021/05/06 13:20:58;;;;;;;2.65;1.60;;;11.40;99.90;;;;;;5033746;28;20207;-73
2021/05/06 13:23:28;;;;;;;1.70;1.58;;;11.40;99.90;;;;;;5033156;28;20235;-73
2021/05/06 13:25:56;;;;;;;2.50;1.80;;;11.30;99.90;;;;;;5033025;28;20224;-73
2021/05/06 13:28:42;;;;;;;1.60;1.48;;;11.40;99.90;;;;;;5033574;28;20559;-73
2021/05/06 13:31:11;;;;;;;2.80;2.05;;;11.30;99.90;;;;;;5033014;28;20247;-73
2021/05/06 13:33:38;;;;;;;4.90;2.25;;;11.20;99.90;;;;;;5025116;28;20208;-73
2021/05/06 13:36:07;;;;;;;2.70;2.50;;;11.20;99.90;;;;;;5030570;28;20437;-73
2021/05/06 13:38:54;;;;;;;3.20;2.90;;;11.20;99.90;;;;;;5032018;28;20210;-73
2021/05/06 13:41:23;;;;;;;5.30;2.90;;;11.30;99.90;;;;;;5034622;28;20562;-73
2021/05/06 13:43:49;;;;;;;2.95;2.65;;;11.30;99.90;;;;;;5035526;28;20670;-73
2021/05/06 13:46:16;;;;;;;3.47;2.50;;;11.30;99.90;;;;;;5035277;28;20319;-76
2021/05/06 13:48:43;;;;;;;3.33;2.35;;;11.00;99.90;;;;;;5035299;28;20208;-74
2021/05/06 13:51:11;;;;;;;5.28;2.58;;;10.90;99.90;;;;;;5035515;28;20291;-74
2021/05/06 13:53:38;;;;;;;3.50;2.60;;;10.90;99.90;;;;;;5035485;28;20566;-75
2021/05/06 13:56:04;;;;;;;3.70;2.78;;;10.90;99.90;;;;;;5034969;28;20211;-72
2021/05/06 13:58:32;;;;;;;2.72;2.53;;;10.80;99.90;;;;;;5035052;28;20600;-72
2021/05/06 14:00:58;;;;;;;3.75;2.70;;;10.90;99.90;;;;;;5035270;28;20209;-72
2021/05/06 14:03:24;;;;;;;2.70;2.40;;;10.90;99.90;;;;;;5035428;28;20218;-72
2021/05/06 14:05:51;;;;;;;2.47;2.28;;;11.00;99.90;;;;;;5034840;28;20259;-72
2021/05/06 14:08:18;;;;;;;4.85;3.20;;;11.00;99.90;;;;;;5034743;28;20295;-72
2021/05/06 14:10:45;;;;;;;6.20;3.30;;;11.00;99.90;;;;;;5035031;28;20577;-73
2021/05/06 14:13:12;;;;;;;3.55;2.30;;;11.20;99.90;;;;;;5035001;28;20204;-72
2021/05/06 14:15:39;;;;;;;4.78;3.17;;;11.30;99.90;;;;;;5034510;28;20310;-72
2021/05/06 14:18:05;;;;;;;5.10;2.88;;;11.20;99.90;;;;;;5034709;28;20612;-72
2021/05/06 14:20:32;;;;;;;2.78;2.50;;;11.20;99.90;;;;;;5034784;28;20738;-72
2021/05/06 14:22:58;;;;;;;3.70;2.70;;;11.30;99.90;;;;;;5034846;28;20291;-73
2021/05/06 14:25:24;;;;;;;3.42;3.13;;;11.30;99.90;;;;;;5034708;28;20224;-71
2021/05/06 14:27:51;;;;;;;8.05;2.65;;;11.30;99.90;;;;;;5034432;28;20298;-72
2021/05/06 14:30:18;;;;;;;4.43;2.25;;;11.20;99.90;;;;;;5034717;28;20206;-72
2021/05/06 14:32:45;;;;;;;3.40;2.35;;;11.10;99.90;;;;;;5034838;28;20226;-71
2021/05/06 14:35:11;;;;;;;2.88;2.35;;;11.10;99.90;;;;;;5034671;28;20224;-73
2021/05/06 14:37:38;;;;;;;4.55;1.92;;;10.90;99.90;;;;;;5034288;28;20661;-73
2021/05/06 14:40:06;;;;;;;2.10;1.90;;;10.90;99.90;;;;;;5034121;28;20295;-74
2021/05/06 14:42:33;;;;;;;1.98;1.75;;;11.00;99.90;;;;;;5034817;28;20270;-74
2021/05/06 14:44:59;;;;;;;1.60;1.48;;;10.80;99.90;;;;;;5034362;28;20319;-74
2021/05/06 14:47:26;;;;;;;1.75;1.40;;;10.80;99.90;;;;;;5034109;28;20296;-74
2021/05/06 14:49:53;;;;;;;5.68;1.65;;;10.70;99.90;;;;;;5034208;28;20663;-74
2021/05/06 14:52:20;;;;;;;1.67;1.50;;;10.50;99.90;;;;;;5034304;28;20243;-74
2021/05/06 14:54:47;;;;;;;1.50;1.40;;;10.50;99.90;;;;;;5034216;28;20220;-75
2021/05/06 14:57:13;;;;;;;2.08;1.20;;;10.40;99.90;;;;;;5034181;28;20246;-74
2021/05/06 14:59:40;;;;;;;3.88;2.00;;;10.40;99.90;;;;;;5034009;28;20211;-75
2021/05/06 15:02:06;;;;;;;1.23;1.10;;;10.40;99.90;;;;;;5034296;28;20724;-73
2021/05/06 15:04:33;;;;;;;1.60;1.00;;;10.40;99.90;;;;;;5033954;28;20228;-72
2021/05/06 15:07:00;;;;;;;1.52;1.20;;;10.40;99.90;;;;;;5033886;28;20239;-72
2021/05/06 15:09:26;;;;;;;1.60;1.40;;;10.50;99.90;;;;;;5033778;28;20203;-73
2021/05/06 15:11:55;;;;;;;1.23;1.20;;;10.50;99.90;;;;;;5034171;28;20238;-73
2021/05/06 15:14:22;;;;;;;2.70;1.50;;;10.50;99.90;;;;;;5034062;28;20259;-72
2021/05/06 15:16:48;;;;;;;1.58;1.40;;;10.50;99.90;;;;;;5033554;28;20211;-73
2021/05/06 15:19:14;;;;;;;1.92;1.50;;;10.60;99.90;;;;;;5033710;28;20298;-73
2021/05/06 15:21:41;;;;;;;1.33;1.25;;;10.60;99.90;;;;;;5033657;28;20666;-73
2021/05/06 15:24:08;;;;;;;1.40;1.30;;;10.50;99.90;;;;;;5033513;28;20232;-72
2021/05/06 15:26:36;;;;;;;2.00;1.42;;;10.50;99.90;;;;;;5033660;28;20318;-73
2021/05/06 15:29:03;;;;;;;2.30;1.23;;;10.40;99.90;;;;;;5033505;28;20208;-73
2021/05/06 15:31:30;;;;;;;1.30;1.20;;;10.40;99.90;;;;;;5033538;28;20212;-73